sensor_id;sensor_type;location;lat;lon;timestamp;P1;durP1;ratioP1;P2;durP2;ratioP2
6392;SDS011;3229;42.674;23.282;2023-11-21T00:02:05;23.57;;;12.87;;
6392;SDS011;3229;42.674;23.282;2023-11-21T00:04:32;21.47;;;12.70;;
6392;SDS011;3229;42.674;23.282;2023-11-21T00:06:59;20.73;;;13.10;;
6392;SDS011;3229;42.674;23.282;2023-11-21T00:09:25;28.17;;;13.20;;
6392;SDS011;3229;42.674;23.282;2023-11-21T00:11:54;25.07;;;13.63;;
6392;SDS011;3229;42.674;23.282;2023-11-21T00:14:20;22.43;;;13.03;;
6392;SDS011;3229;42.674;23.282;2023-11-21T00:16:47;24.13;;;12.87;;
6392;SDS011;3229;42.674;23.282;2023-11-21T00:19:14;22.83;;;12.70;;
6392;SDS011;3229;42.674;23.282;2023-11-21T00:21:41;19.83;;;12.47;;
6392;SDS011;3229;42.674;23.282;2023-11-21T00:24:09;21.17;;;12.10;;
6392;SDS011;3229;42.674;23.282;2023-11-21T00:26:38;23.57;;;12.83;;
6392;SDS011;3229;42.674;23.282;2023-11-21T00:29:06;17.13;;;11.30;;
6392;SDS011;3229;42.674;23.282;2023-11-21T00:31:34;23.40;;;12.83;;
6392;SDS011;3229;42.674;23.282;2023-11-21T00:34:02;22.73;;;12.67;;
6392;SDS011;3229;42.674;23.282;2023-11-21T00:36:30;18.23;;;11.47;;
6392;SDS011;3229;42.674;23.282;2023-11-21T00:38:57;23.90;;;12.70;;
6392;SDS011;3229;42.674;23.282;2023-11-21T00:41:24;19.87;;;12.60;;
6392;SDS011;3229;42.674;23.282;2023-11-21T00:43:52;25.53;;;13.23;;
6392;SDS011;3229;42.674;23.282;2023-11-21T00:46:21;24.30;;;11.97;;
6392;SDS011;3229;42.674;23.282;2023-11-21T00:48:49;18.20;;;12.13;;
6392;SDS011;3229;42.674;23.282;2023-11-21T00:51:16;19.60;;;12.10;;
6392;SDS011;3229;42.674;23.282;2023-11-21T00:53:42;22.03;;;11.40;;
6392;SDS011;3229;42.674;23.282;2023-11-21T00:56:09;24.43;;;12.13;;
6392;SDS011;3229;42.674;23.282;2023-11-21T00:58:37;19.17;;;12.50;;
6392;SDS011;3229;42.674;23.282;2023-11-21T01:01:03;21.00;;;12.60;;
6392;SDS011;3229;42.674;23.282;2023-11-21T01:03:32;23.47;;;12.17;;
6392;SDS011;3229;42.674;23.282;2023-11-21T01:05:59;19.50;;;12.90;;
6392;SDS011;3229;42.674;23.282;2023-11-21T01:08:26;22.17;;;13.97;;
6392;SDS011;3229;42.674;23.282;2023-11-21T01:10:52;22.83;;;13.20;;
6392;SDS011;3229;42.674;23.282;2023-11-21T01:13:20;24.23;;;14.90;;
6392;SDS011;3229;42.674;23.282;2023-11-21T01:15:46;27.13;;;14.80;;
6392;SDS011;3229;42.674;23.282;2023-11-21T01:18:13;25.37;;;13.37;;
6392;SDS011;3229;42.674;23.282;2023-11-21T01:20:41;24.20;;;13.77;;
6392;SDS011;3229;42.674;23.282;2023-11-21T01:23:09;25.70;;;13.93;;
6392;SDS011;3229;42.674;23.282;2023-11-21T01:25:35;19.77;;;12.33;;
6392;SDS011;3229;42.674;23.282;2023-11-21T01:28:02;23.20;;;13.47;;
6392;SDS011;3229;42.674;23.282;2023-11-21T01:30:29;23.20;;;13.13;;
6392;SDS011;3229;42.674;23.282;2023-11-21T01:32:57;22.33;;;12.83;;
6392;SDS011;3229;42.674;23.282;2023-11-21T01:35:25;20.67;;;12.63;;
6392;SDS011;3229;42.674;23.282;2023-11-21T01:37:53;23.50;;;12.33;;
6392;SDS011;3229;42.674;23.282;2023-11-21T01:40:19;21.57;;;12.50;;
6392;SDS011;3229;42.674;23.282;2023-11-21T01:42:46;18.83;;;11.20;;
6392;SDS011;3229;42.674;23.282;2023-11-21T01:45:13;16.83;;;10.50;;
6392;SDS011;3229;42.674;23.282;2023-11-21T01:47:40;15.17;;;10.63;;
6392;SDS011;3229;42.674;23.282;2023-11-21T01:50:09;20.67;;;11.83;;
6392;SDS011;3229;42.674;23.282;2023-11-21T01:52:41;14.87;;;10.13;;
6392;SDS011;3229;42.674;23.282;2023-11-21T01:55:11;18.63;;;10.50;;
6392;SDS011;3229;42.674;23.282;2023-11-21T01:57:41;19.00;;;10.97;;
6392;SDS011;3229;42.674;23.282;2023-11-21T02:00:09;20.77;;;11.30;;
6392;SDS011;3229;42.674;23.282;2023-11-21T02:02:42;21.47;;;10.67;;
6392;SDS011;3229;42.674;23.282;2023-11-21T02:05:09;19.00;;;11.13;;
6392;SDS011;3229;42.674;23.282;2023-11-21T02:07:37;18.17;;;10.77;;
6392;SDS011;3229;42.674;23.282;2023-11-21T02:10:05;17.87;;;10.27;;
6392;SDS011;3229;42.674;23.282;2023-11-21T02:12:34;17.07;;;9.67;;
6392;SDS011;3229;42.674;23.282;2023-11-21T02:15:02;22.80;;;11.00;;
6392;SDS011;3229;42.674;23.282;2023-11-21T02:17:30;18.40;;;11.30;;
6392;SDS011;3229;42.674;23.282;2023-11-21T02:19:57;17.60;;;10.20;;
6392;SDS011;3229;42.674;23.282;2023-11-21T02:22:25;15.40;;;10.30;;
6392;SDS011;3229;42.674;23.282;2023-11-21T02:24:57;17.80;;;10.47;;
6392;SDS011;3229;42.674;23.282;2023-11-21T02:27:24;15.97;;;10.23;;
6392;SDS011;3229;42.674;23.282;2023-11-21T02:29:53;15.03;;;9.70;;
6392;SDS011;3229;42.674;23.282;2023-11-21T02:32:19;21.13;;;10.90;;
6392;SDS011;3229;42.674;23.282;2023-11-21T02:34:48;22.60;;;9.77;;
6392;SDS011;3229;42.674;23.282;2023-11-21T02:37:15;15.17;;;9.23;;
6392;SDS011;3229;42.674;23.282;2023-11-21T02:39:41;18.03;;;9.53;;
6392;SDS011;3229;42.674;23.282;2023-11-21T02:42:10;19.27;;;9.60;;
6392;SDS011;3229;42.674;23.282;2023-11-21T02:44:36;16.60;;;10.07;;
6392;SDS011;3229;42.674;23.282;2023-11-21T02:47:03;15.77;;;10.20;;
6392;SDS011;3229;42.674;23.282;2023-11-21T02:49:31;17.60;;;9.47;;
6392;SDS011;3229;42.674;23.282;2023-11-21T02:51:59;17.73;;;9.50;;
6392;SDS011;3229;42.674;23.282;2023-11-21T02:54:27;17.33;;;9.83;;
6392;SDS011;3229;42.674;23.282;2023-11-21T02:56:53;18.23;;;9.80;;
6392;SDS011;3229;42.674;23.282;2023-11-21T02:59:21;20.27;;;9.90;;
6392;SDS011;3229;42.674;23.282;2023-11-21T03:01:48;17.83;;;10.03;;
6392;SDS011;3229;42.674;23.282;2023-11-21T03:04:15;17.87;;;10.17;;
6392;SDS011;3229;42.674;23.282;2023-11-21T03:06:43;17.10;;;9.83;;
6392;SDS011;3229;42.674;23.282;2023-11-21T03:09:10;13.73;;;9.27;;
6392;SDS011;3229;42.674;23.282;2023-11-21T03:11:38;12.60;;;8.97;;
6392;SDS011;3229;42.674;23.282;2023-11-21T03:14:05;17.13;;;10.30;;
6392;SDS011;3229;42.674;23.282;2023-11-21T03:16:33;23.17;;;12.37;;
6392;SDS011;3229;42.674;23.282;2023-11-21T03:19:00;18.10;;;11.70;;
6392;SDS011;3229;42.674;23.282;2023-11-21T03:21:27;19.13;;;10.80;;
6392;SDS011;3229;42.674;23.282;2023-11-21T03:23:54;19.37;;;11.07;;
6392;SDS011;3229;42.674;23.282;2023-11-21T03:26:21;15.97;;;10.20;;
6392;SDS011;3229;42.674;23.282;2023-11-21T03:28:48;20.33;;;11.30;;
6392;SDS011;3229;42.674;23.282;2023-11-21T03:31:15;18.40;;;9.60;;
6392;SDS011;3229;42.674;23.282;2023-11-21T03:33:45;14.90;;;9.20;;
6392;SDS011;3229;42.674;23.282;2023-11-21T03:36:12;13.63;;;9.43;;
6392;SDS011;3229;42.674;23.282;2023-11-21T03:38:40;15.73;;;9.50;;
6392;SDS011;3229;42.674;23.282;2023-11-21T03:41:07;18.33;;;9.43;;
6392;SDS011;3229;42.674;23.282;2023-11-21T03:43:35;18.87;;;10.17;;
6392;SDS011;3229;42.674;23.282;2023-11-21T03:46:02;17.03;;;9.90;;
6392;SDS011;3229;42.674;23.282;2023-11-21T03:48:28;16.70;;;9.90;;
6392;SDS011;3229;42.674;23.282;2023-11-21T03:50:57;20.33;;;10.80;;
6392;SDS011;3229;42.674;23.282;2023-11-21T03:53:23;22.63;;;13.97;;
6392;SDS011;3229;42.674;23.282;2023-11-21T03:55:50;31.47;;;14.07;;
6392;SDS011;3229;42.674;23.282;2023-11-21T03:58:17;29.57;;;14.90;;
6392;SDS011;3229;42.674;23.282;2023-11-21T04:00:45;28.10;;;15.03;;
6392;SDS011;3229;42.674;23.282;2023-11-21T04:03:14;22.80;;;14.77;;
6392;SDS011;3229;42.674;23.282;2023-11-21T04:05:40;29.40;;;16.17;;
6392;SDS011;3229;42.674;23.282;2023-11-21T04:08:08;27.57;;;16.37;;
6392;SDS011;3229;42.674;23.282;2023-11-21T04:10:35;28.50;;;15.73;;
6392;SDS011;3229;42.674;23.282;2023-11-21T04:13:04;43.30;;;17.57;;
6392;SDS011;3229;42.674;23.282;2023-11-21T04:15:31;24.30;;;14.43;;
6392;SDS011;3229;42.674;23.282;2023-11-21T04:17:58;27.23;;;14.37;;
6392;SDS011;3229;42.674;23.282;2023-11-21T04:20:25;22.07;;;13.60;;
6392;SDS011;3229;42.674;23.282;2023-11-21T04:22:52;21.83;;;14.03;;
6392;SDS011;3229;42.674;23.282;2023-11-21T04:25:20;24.73;;;13.83;;
6392;SDS011;3229;42.674;23.282;2023-11-21T04:27:48;27.77;;;14.73;;
6392;SDS011;3229;42.674;23.282;2023-11-21T04:30:15;26.57;;;14.97;;
6392;SDS011;3229;42.674;23.282;2023-11-21T04:32:42;25.80;;;14.33;;
6392;SDS011;3229;42.674;23.282;2023-11-21T04:35:09;29.20;;;14.77;;
6392;SDS011;3229;42.674;23.282;2023-11-21T04:37:35;26.83;;;14.60;;
6392;SDS011;3229;42.674;23.282;2023-11-21T04:40:02;19.60;;;12.37;;
6392;SDS011;3229;42.674;23.282;2023-11-21T04:42:33;26.90;;;13.57;;
6392;SDS011;3229;42.674;23.282;2023-11-21T04:45:01;28.93;;;14.40;;
6392;SDS011;3229;42.674;23.282;2023-11-21T04:47:30;24.10;;;12.63;;
6392;SDS011;3229;42.674;23.282;2023-11-21T04:49:57;21.37;;;13.07;;
6392;SDS011;3229;42.674;23.282;2023-11-21T04:52:24;24.03;;;13.10;;
6392;SDS011;3229;42.674;23.282;2023-11-21T04:54:50;22.87;;;13.37;;
6392;SDS011;3229;42.674;23.282;2023-11-21T04:57:19;20.50;;;12.80;;
6392;SDS011;3229;42.674;23.282;2023-11-21T04:59:48;24.47;;;13.07;;
6392;SDS011;3229;42.674;23.282;2023-11-21T05:02:16;25.00;;;14.00;;
6392;SDS011;3229;42.674;23.282;2023-11-21T05:04:44;21.83;;;14.40;;
6392;SDS011;3229;42.674;23.282;2023-11-21T05:07:13;23.23;;;13.87;;
6392;SDS011;3229;42.674;23.282;2023-11-21T05:09:41;22.60;;;13.37;;
6392;SDS011;3229;42.674;23.282;2023-11-21T05:12:11;26.07;;;14.07;;
6392;SDS011;3229;42.674;23.282;2023-11-21T05:14:39;27.63;;;14.57;;
6392;SDS011;3229;42.674;23.282;2023-11-21T05:17:07;33.50;;;17.93;;
6392;SDS011;3229;42.674;23.282;2023-11-21T05:19:34;32.27;;;18.67;;
6392;SDS011;3229;42.674;23.282;2023-11-21T05:22:01;27.03;;;16.73;;
6392;SDS011;3229;42.674;23.282;2023-11-21T05:24:29;26.37;;;17.50;;
6392;SDS011;3229;42.674;23.282;2023-11-21T05:26:56;30.17;;;18.47;;
6392;SDS011;3229;42.674;23.282;2023-11-21T05:29:22;27.23;;;17.60;;
6392;SDS011;3229;42.674;23.282;2023-11-21T05:31:50;28.07;;;18.00;;
6392;SDS011;3229;42.674;23.282;2023-11-21T05:34:19;33.83;;;17.67;;
6392;SDS011;3229;42.674;23.282;2023-11-21T05:36:49;35.20;;;17.13;;
6392;SDS011;3229;42.674;23.282;2023-11-21T05:39:16;29.07;;;17.03;;
6392;SDS011;3229;42.674;23.282;2023-11-21T05:41:43;30.77;;;18.97;;
6392;SDS011;3229;42.674;23.282;2023-11-21T05:44:10;36.33;;;18.23;;
6392;SDS011;3229;42.674;23.282;2023-11-21T05:46:39;28.63;;;17.17;;
6392;SDS011;3229;42.674;23.282;2023-11-21T05:49:08;25.23;;;16.43;;
6392;SDS011;3229;42.674;23.282;2023-11-21T05:51:36;34.17;;;19.17;;
6392;SDS011;3229;42.674;23.282;2023-11-21T05:54:03;31.77;;;17.57;;
6392;SDS011;3229;42.674;23.282;2023-11-21T05:56:30;31.73;;;17.13;;
6392;SDS011;3229;42.674;23.282;2023-11-21T05:58:57;26.27;;;17.10;;
6392;SDS011;3229;42.674;23.282;2023-11-21T06:01:24;29.63;;;17.70;;
6392;SDS011;3229;42.674;23.282;2023-11-21T06:03:53;29.67;;;18.93;;
6392;SDS011;3229;42.674;23.282;2023-11-21T06:06:20;36.73;;;18.90;;
6392;SDS011;3229;42.674;23.282;2023-11-21T06:08:48;30.90;;;17.80;;
6392;SDS011;3229;42.674;23.282;2023-11-21T06:11:15;32.73;;;18.87;;
6392;SDS011;3229;42.674;23.282;2023-11-21T06:13:43;31.93;;;20.27;;
6392;SDS011;3229;42.674;23.282;2023-11-21T06:16:10;34.77;;;18.53;;
6392;SDS011;3229;42.674;23.282;2023-11-21T06:18:39;33.47;;;19.77;;
6392;SDS011;3229;42.674;23.282;2023-11-21T06:21:09;38.03;;;18.73;;
6392;SDS011;3229;42.674;23.282;2023-11-21T06:23:35;33.37;;;18.70;;
6392;SDS011;3229;42.674;23.282;2023-11-21T06:26:04;29.73;;;19.67;;
6392;SDS011;3229;42.674;23.282;2023-11-21T06:28:31;35.60;;;21.03;;
6392;SDS011;3229;42.674;23.282;2023-11-21T06:30:57;41.37;;;24.80;;
6392;SDS011;3229;42.674;23.282;2023-11-21T06:33:30;40.13;;;24.13;;
6392;SDS011;3229;42.674;23.282;2023-11-21T06:35:56;44.67;;;24.20;;
6392;SDS011;3229;42.674;23.282;2023-11-21T06:38:23;44.07;;;25.97;;
6392;SDS011;3229;42.674;23.282;2023-11-21T06:40:53;48.97;;;26.03;;
6392;SDS011;3229;42.674;23.282;2023-11-21T06:43:22;40.03;;;23.87;;
6392;SDS011;3229;42.674;23.282;2023-11-21T06:45:48;43.60;;;24.57;;
6392;SDS011;3229;42.674;23.282;2023-11-21T06:48:15;43.03;;;22.97;;
6392;SDS011;3229;42.674;23.282;2023-11-21T06:50:42;36.73;;;23.30;;
6392;SDS011;3229;42.674;23.282;2023-11-21T06:53:09;40.57;;;23.17;;
6392;SDS011;3229;42.674;23.282;2023-11-21T06:55:36;30.97;;;20.83;;
6392;SDS011;3229;42.674;23.282;2023-11-21T06:58:03;36.43;;;19.30;;
6392;SDS011;3229;42.674;23.282;2023-11-21T07:00:31;37.10;;;20.20;;
6392;SDS011;3229;42.674;23.282;2023-11-21T07:02:58;30.63;;;20.30;;
6392;SDS011;3229;42.674;23.282;2023-11-21T07:05:25;31.27;;;20.60;;
6392;SDS011;3229;42.674;23.282;2023-11-21T07:07:52;35.07;;;23.37;;
6392;SDS011;3229;42.674;23.282;2023-11-21T07:10:19;41.83;;;22.83;;
6392;SDS011;3229;42.674;23.282;2023-11-21T07:12:46;32.20;;;20.00;;
6392;SDS011;3229;42.674;23.282;2023-11-21T07:15:13;39.20;;;23.03;;
6392;SDS011;3229;42.674;23.282;2023-11-21T07:17:41;40.53;;;23.77;;
6392;SDS011;3229;42.674;23.282;2023-11-21T07:20:09;32.47;;;21.60;;
6392;SDS011;3229;42.674;23.282;2023-11-21T07:22:37;31.13;;;20.90;;
6392;SDS011;3229;42.674;23.282;2023-11-21T07:25:04;32.77;;;21.37;;
6392;SDS011;3229;42.674;23.282;2023-11-21T07:27:32;39.73;;;20.87;;
6392;SDS011;3229;42.674;23.282;2023-11-21T07:30:01;30.67;;;20.60;;
6392;SDS011;3229;42.674;23.282;2023-11-21T07:32:29;35.57;;;21.20;;
6392;SDS011;3229;42.674;23.282;2023-11-21T07:34:57;36.17;;;21.07;;
6392;SDS011;3229;42.674;23.282;2023-11-21T07:37:26;39.80;;;23.13;;
6392;SDS011;3229;42.674;23.282;2023-11-21T07:39:54;43.67;;;21.43;;
6392;SDS011;3229;42.674;23.282;2023-11-21T07:42:21;38.17;;;20.77;;
6392;SDS011;3229;42.674;23.282;2023-11-21T07:44:49;35.27;;;20.30;;
6392;SDS011;3229;42.674;23.282;2023-11-21T07:47:17;45.33;;;19.77;;
6392;SDS011;3229;42.674;23.282;2023-11-21T07:49:44;39.53;;;19.63;;
6392;SDS011;3229;42.674;23.282;2023-11-21T07:52:13;33.70;;;19.93;;
6392;SDS011;3229;42.674;23.282;2023-11-21T07:54:41;35.37;;;20.67;;
6392;SDS011;3229;42.674;23.282;2023-11-21T07:57:08;37.17;;;19.63;;
6392;SDS011;3229;42.674;23.282;2023-11-21T07:59:38;30.23;;;18.67;;
6392;SDS011;3229;42.674;23.282;2023-11-21T08:02:05;28.10;;;18.37;;
6392;SDS011;3229;42.674;23.282;2023-11-21T08:04:32;28.47;;;17.40;;
6392;SDS011;3229;42.674;23.282;2023-11-21T08:07:00;33.77;;;19.07;;
6392;SDS011;3229;42.674;23.282;2023-11-21T08:09:30;32.03;;;18.97;;
6392;SDS011;3229;42.674;23.282;2023-11-21T08:11:58;41.17;;;19.87;;
6392;SDS011;3229;42.674;23.282;2023-11-21T08:14:25;37.77;;;18.80;;
6392;SDS011;3229;42.674;23.282;2023-11-21T08:16:52;33.60;;;19.80;;
6392;SDS011;3229;42.674;23.282;2023-11-21T08:19:22;33.53;;;19.77;;
6392;SDS011;3229;42.674;23.282;2023-11-21T08:21:50;27.33;;;17.73;;
6392;SDS011;3229;42.674;23.282;2023-11-21T08:24:19;31.63;;;19.43;;
6392;SDS011;3229;42.674;23.282;2023-11-21T08:26:48;34.90;;;19.60;;
6392;SDS011;3229;42.674;23.282;2023-11-21T08:29:14;28.93;;;18.60;;
6392;SDS011;3229;42.674;23.282;2023-11-21T08:31:41;28.50;;;17.97;;
6392;SDS011;3229;42.674;23.282;2023-11-21T08:34:09;26.90;;;17.90;;
6392;SDS011;3229;42.674;23.282;2023-11-21T08:36:40;24.17;;;15.17;;
6392;SDS011;3229;42.674;23.282;2023-11-21T08:39:08;30.83;;;17.10;;
6392;SDS011;3229;42.674;23.282;2023-11-21T08:41:35;42.67;;;21.63;;
6392;SDS011;3229;42.674;23.282;2023-11-21T08:44:04;41.90;;;22.40;;
6392;SDS011;3229;42.674;23.282;2023-11-21T08:46:32;40.63;;;21.03;;
6392;SDS011;3229;42.674;23.282;2023-11-21T08:48:59;38.43;;;20.77;;
6392;SDS011;3229;42.674;23.282;2023-11-21T08:51:27;39.57;;;21.17;;
6392;SDS011;3229;42.674;23.282;2023-11-21T08:53:53;37.40;;;21.50;;
6392;SDS011;3229;42.674;23.282;2023-11-21T08:56:24;39.53;;;18.13;;
6392;SDS011;3229;42.674;23.282;2023-11-21T08:58:51;35.80;;;18.07;;
6392;SDS011;3229;42.674;23.282;2023-11-21T09:01:19;26.83;;;15.10;;
6392;SDS011;3229;42.674;23.282;2023-11-21T09:03:46;28.70;;;16.43;;
6392;SDS011;3229;42.674;23.282;2023-11-21T09:06:13;28.47;;;16.43;;
6392;SDS011;3229;42.674;23.282;2023-11-21T09:08:39;35.90;;;18.33;;
6392;SDS011;3229;42.674;23.282;2023-11-21T09:11:07;34.20;;;16.90;;
6392;SDS011;3229;42.674;23.282;2023-11-21T09:13:34;27.53;;;17.57;;
6392;SDS011;3229;42.674;23.282;2023-11-21T09:16:01;30.47;;;18.97;;
6392;SDS011;3229;42.674;23.282;2023-11-21T09:18:29;32.23;;;18.27;;
6392;SDS011;3229;42.674;23.282;2023-11-21T09:20:56;31.00;;;19.50;;
6392;SDS011;3229;42.674;23.282;2023-11-21T09:23:23;36.90;;;18.73;;
6392;SDS011;3229;42.674;23.282;2023-11-21T09:25:50;31.93;;;18.43;;
6392;SDS011;3229;42.674;23.282;2023-11-21T09:28:17;36.83;;;17.70;;
6392;SDS011;3229;42.674;23.282;2023-11-21T09:30:43;30.67;;;18.90;;
6392;SDS011;3229;42.674;23.282;2023-11-21T09:33:10;18.37;;;11.73;;
6392;SDS011;3229;42.674;23.282;2023-11-21T09:35:38;16.20;;;10.77;;
6392;SDS011;3229;42.674;23.282;2023-11-21T09:38:05;13.87;;;10.53;;
6392;SDS011;3229;42.674;23.282;2023-11-21T09:40:35;19.23;;;10.87;;
6392;SDS011;3229;42.674;23.282;2023-11-21T09:43:03;17.87;;;10.73;;
6392;SDS011;3229;42.674;23.282;2023-11-21T09:45:34;20.90;;;11.27;;
6392;SDS011;3229;42.674;23.282;2023-11-21T09:48:02;19.33;;;10.67;;
6392;SDS011;3229;42.674;23.282;2023-11-21T09:50:31;18.60;;;10.23;;
6392;SDS011;3229;42.674;23.282;2023-11-21T09:53:04;12.27;;;10.10;;
6392;SDS011;3229;42.674;23.282;2023-11-21T09:55:39;22.40;;;11.40;;
6392;SDS011;3229;42.674;23.282;2023-11-21T09:58:09;15.07;;;10.60;;
6392;SDS011;3229;42.674;23.282;2023-11-21T10:00:39;17.47;;;11.33;;
6392;SDS011;3229;42.674;23.282;2023-11-21T10:03:07;21.93;;;11.33;;
6392;SDS011;3229;42.674;23.282;2023-11-21T10:05:34;16.00;;;11.33;;
6392;SDS011;3229;42.674;23.282;2023-11-21T10:08:01;18.20;;;10.80;;
6392;SDS011;3229;42.674;23.282;2023-11-21T10:10:30;17.93;;;10.47;;
6392;SDS011;3229;42.674;23.282;2023-11-21T10:13:01;16.83;;;10.17;;
6392;SDS011;3229;42.674;23.282;2023-11-21T10:15:31;19.50;;;9.83;;
6392;SDS011;3229;42.674;23.282;2023-11-21T10:18:01;19.70;;;11.27;;
6392;SDS011;3229;42.674;23.282;2023-11-21T10:20:29;22.63;;;11.10;;
6392;SDS011;3229;42.674;23.282;2023-11-21T10:22:56;20.60;;;10.93;;
6392;SDS011;3229;42.674;23.282;2023-11-21T10:25:23;20.17;;;11.17;;
6392;SDS011;3229;42.674;23.282;2023-11-21T10:27:55;19.90;;;11.03;;
6392;SDS011;3229;42.674;23.282;2023-11-21T10:30:27;26.67;;;11.47;;
6392;SDS011;3229;42.674;23.282;2023-11-21T10:32:58;25.80;;;11.90;;
6392;SDS011;3229;42.674;23.282;2023-11-21T10:35:25;23.83;;;12.30;;
6392;SDS011;3229;42.674;23.282;2023-11-21T10:38:05;16.37;;;11.23;;
6392;SDS011;3229;42.674;23.282;2023-11-21T10:40:37;19.57;;;11.50;;
6392;SDS011;3229;42.674;23.282;2023-11-21T10:43:08;18.27;;;11.40;;
6392;SDS011;3229;42.674;23.282;2023-11-21T10:45:36;14.90;;;10.30;;
6392;SDS011;3229;42.674;23.282;2023-11-21T10:48:05;15.30;;;10.70;;
6392;SDS011;3229;42.674;23.282;2023-11-21T10:50:34;16.53;;;11.53;;
6392;SDS011;3229;42.674;23.282;2023-11-21T10:53:01;18.80;;;11.17;;
6392;SDS011;3229;42.674;23.282;2023-11-21T10:55:31;25.57;;;12.87;;
6392;SDS011;3229;42.674;23.282;2023-11-21T10:57:59;19.67;;;12.70;;
6392;SDS011;3229;42.674;23.282;2023-11-21T11:00:30;17.17;;;11.90;;
6392;SDS011;3229;42.674;23.282;2023-11-21T11:02:58;21.03;;;12.10;;
6392;SDS011;3229;42.674;23.282;2023-11-21T11:05:26;22.50;;;12.83;;
6392;SDS011;3229;42.674;23.282;2023-11-21T11:07:56;22.67;;;12.97;;
6392;SDS011;3229;42.674;23.282;2023-11-21T11:10:26;25.87;;;15.03;;
6392;SDS011;3229;42.674;23.282;2023-11-21T11:12:55;22.87;;;14.63;;
6392;SDS011;3229;42.674;23.282;2023-11-21T11:15:23;23.07;;;15.03;;
6392;SDS011;3229;42.674;23.282;2023-11-21T11:17:51;25.13;;;14.60;;
6392;SDS011;3229;42.674;23.282;2023-11-21T11:20:22;26.03;;;15.37;;
6392;SDS011;3229;42.674;23.282;2023-11-21T11:22:54;23.37;;;14.13;;
6392;SDS011;3229;42.674;23.282;2023-11-21T11:25:35;20.53;;;13.97;;
6392;SDS011;3229;42.674;23.282;2023-11-21T11:28:14;21.83;;;15.17;;
6392;SDS011;3229;42.674;23.282;2023-11-21T11:30:47;26.17;;;14.90;;
6392;SDS011;3229;42.674;23.282;2023-11-21T11:33:31;25.53;;;15.40;;
6392;SDS011;3229;42.674;23.282;2023-11-21T11:36:05;26.83;;;14.63;;
6392;SDS011;3229;42.674;23.282;2023-11-21T11:38:36;21.43;;;14.27;;
6392;SDS011;3229;42.674;23.282;2023-11-21T11:41:03;23.00;;;13.27;;
6392;SDS011;3229;42.674;23.282;2023-11-21T11:43:31;22.40;;;11.67;;
6392;SDS011;3229;42.674;23.282;2023-11-21T11:46:09;24.90;;;12.53;;
6392;SDS011;3229;42.674;23.282;2023-11-21T11:48:39;25.33;;;13.60;;
6392;SDS011;3229;42.674;23.282;2023-11-21T11:51:07;21.93;;;14.10;;
6392;SDS011;3229;42.674;23.282;2023-11-21T11:53:39;22.13;;;14.17;;
6392;SDS011;3229;42.674;23.282;2023-11-21T11:56:24;21.73;;;13.30;;
6392;SDS011;3229;42.674;23.282;2023-11-21T11:58:53;16.30;;;10.43;;
6392;SDS011;3229;42.674;23.282;2023-11-21T12:01:21;17.13;;;11.03;;
6392;SDS011;3229;42.674;23.282;2023-11-21T12:06:59;16.40;;;10.83;;
6392;SDS011;3229;42.674;23.282;2023-11-21T12:09:28;18.60;;;12.73;;
6392;SDS011;3229;42.674;23.282;2023-11-21T12:11:56;22.63;;;14.33;;
6392;SDS011;3229;42.674;23.282;2023-11-21T12:14:23;27.30;;;16.17;;
6392;SDS011;3229;42.674;23.282;2023-11-21T12:16:50;24.43;;;16.77;;
6392;SDS011;3229;42.674;23.282;2023-11-21T12:19:18;32.70;;;19.80;;
6392;SDS011;3229;42.674;23.282;2023-11-21T12:21:48;30.10;;;19.17;;
6392;SDS011;3229;42.674;23.282;2023-11-21T12:24:15;37.57;;;19.70;;
6392;SDS011;3229;42.674;23.282;2023-11-21T12:26:43;32.93;;;19.30;;
6392;SDS011;3229;42.674;23.282;2023-11-21T12:29:10;29.53;;;19.43;;
6392;SDS011;3229;42.674;23.282;2023-11-21T12:31:37;33.23;;;20.80;;
6392;SDS011;3229;42.674;23.282;2023-11-21T12:34:05;35.87;;;21.07;;
6392;SDS011;3229;42.674;23.282;2023-11-21T12:36:32;36.20;;;20.67;;
6392;SDS011;3229;42.674;23.282;2023-11-21T12:39:01;33.67;;;22.70;;
6392;SDS011;3229;42.674;23.282;2023-11-21T12:41:29;38.00;;;22.33;;
6392;SDS011;3229;42.674;23.282;2023-11-21T12:43:56;39.90;;;22.87;;
6392;SDS011;3229;42.674;23.282;2023-11-21T12:46:24;36.57;;;22.47;;
6392;SDS011;3229;42.674;23.282;2023-11-21T12:48:54;32.47;;;22.33;;
6392;SDS011;3229;42.674;23.282;2023-11-21T12:51:21;29.40;;;21.40;;
6392;SDS011;3229;42.674;23.282;2023-11-21T12:53:50;32.00;;;20.57;;
6392;SDS011;3229;42.674;23.282;2023-11-21T12:56:19;38.13;;;21.13;;
6392;SDS011;3229;42.674;23.282;2023-11-21T12:58:49;31.33;;;20.17;;
6392;SDS011;3229;42.674;23.282;2023-11-21T13:01:17;41.00;;;22.27;;
6392;SDS011;3229;42.674;23.282;2023-11-21T13:03:46;38.27;;;23.43;;
6392;SDS011;3229;42.674;23.282;2023-11-21T13:06:16;33.63;;;22.00;;
6392;SDS011;3229;42.674;23.282;2023-11-21T13:08:44;27.63;;;20.63;;
6392;SDS011;3229;42.674;23.282;2023-11-21T13:11:12;29.83;;;19.27;;
6392;SDS011;3229;42.674;23.282;2023-11-21T13:13:41;27.73;;;19.30;;
6392;SDS011;3229;42.674;23.282;2023-11-21T13:16:10;27.40;;;18.80;;
6392;SDS011;3229;42.674;23.282;2023-11-21T13:18:38;31.63;;;20.37;;
6392;SDS011;3229;42.674;23.282;2023-11-21T13:21:08;39.30;;;19.70;;
6392;SDS011;3229;42.674;23.282;2023-11-21T13:23:38;35.10;;;21.13;;
6392;SDS011;3229;42.674;23.282;2023-11-21T13:26:06;33.07;;;22.93;;
6392;SDS011;3229;42.674;23.282;2023-11-21T13:28:34;30.97;;;22.20;;
6392;SDS011;3229;42.674;23.282;2023-11-21T13:31:04;39.33;;;23.60;;
6392;SDS011;3229;42.674;23.282;2023-11-21T13:33:46;34.53;;;21.30;;
6392;SDS011;3229;42.674;23.282;2023-11-21T13:36:16;35.93;;;22.57;;
6392;SDS011;3229;42.674;23.282;2023-11-21T13:38:47;34.80;;;22.77;;
6392;SDS011;3229;42.674;23.282;2023-11-21T13:41:14;34.63;;;24.20;;
6392;SDS011;3229;42.674;23.282;2023-11-21T13:43:43;32.37;;;23.80;;
6392;SDS011;3229;42.674;23.282;2023-11-21T13:46:17;38.53;;;26.60;;
6392;SDS011;3229;42.674;23.282;2023-11-21T13:48:47;44.10;;;28.07;;
6392;SDS011;3229;42.674;23.282;2023-11-21T13:51:16;41.57;;;27.30;;
6392;SDS011;3229;42.674;23.282;2023-11-21T13:53:43;42.30;;;29.23;;
6392;SDS011;3229;42.674;23.282;2023-11-21T13:56:13;39.50;;;29.37;;
6392;SDS011;3229;42.674;23.282;2023-11-21T13:58:44;45.33;;;30.53;;
6392;SDS011;3229;42.674;23.282;2023-11-21T14:01:17;44.60;;;29.90;;
6392;SDS011;3229;42.674;23.282;2023-11-21T14:04:03;45.17;;;30.70;;
6392;SDS011;3229;42.674;23.282;2023-11-21T14:06:44;43.87;;;30.63;;
6392;SDS011;3229;42.674;23.282;2023-11-21T14:09:13;46.80;;;31.10;;
6392;SDS011;3229;42.674;23.282;2023-11-21T14:11:48;45.37;;;31.77;;
6392;SDS011;3229;42.674;23.282;2023-11-21T14:14:16;44.23;;;32.40;;
6392;SDS011;3229;42.674;23.282;2023-11-21T14:16:44;46.00;;;31.47;;
6392;SDS011;3229;42.674;23.282;2023-11-21T14:19:11;45.73;;;29.73;;
6392;SDS011;3229;42.674;23.282;2023-11-21T14:21:41;48.57;;;32.40;;
6392;SDS011;3229;42.674;23.282;2023-11-21T14:24:09;43.23;;;30.03;;
6392;SDS011;3229;42.674;23.282;2023-11-21T14:26:38;50.07;;;32.23;;
6392;SDS011;3229;42.674;23.282;2023-11-21T14:29:06;50.40;;;32.40;;
6392;SDS011;3229;42.674;23.282;2023-11-21T14:31:33;54.40;;;33.67;;
6392;SDS011;3229;42.674;23.282;2023-11-21T14:34:01;46.73;;;32.00;;
6392;SDS011;3229;42.674;23.282;2023-11-21T14:36:31;46.13;;;32.00;;
6392;SDS011;3229;42.674;23.282;2023-11-21T14:38:58;49.03;;;31.93;;
6392;SDS011;3229;42.674;23.282;2023-11-21T14:41:26;43.37;;;31.40;;
6392;SDS011;3229;42.674;23.282;2023-11-21T14:43:54;41.23;;;30.20;;
6392;SDS011;3229;42.674;23.282;2023-11-21T14:46:22;46.03;;;31.27;;